sensor_id;sensor_type;location;lat;lon;timestamp;temperature;humidity
19044;DHT22;9654;52.302;8.120;2023-05-15T00:01:56;12.30;99.90
19044;DHT22;9654;52.302;8.120;2023-05-15T00:04:22;12.30;99.90
19044;DHT22;9654;52.302;8.120;2023-05-15T00:06:49;12.30;99.90
19044;DHT22;9654;52.302;8.120;2023-05-15T00:09:17;12.20;99.90
19044;DHT22;9654;52.302;8.120;2023-05-15T00:11:45;12.20;99.90
19044;DHT22;9654;52.302;8.120;2023-05-15T00:14:12;12.10;99.90
19044;DHT22;9654;52.302;8.120;2023-05-15T00:16:39;12.00;99.90
19044;DHT22;9654;52.302;8.120;2023-05-15T00:19:06;12.00;99.90
19044;DHT22;9654;52.302;8.120;2023-05-15T00:21:32;11.90;99.90
19044;DHT22;9654;52.302;8.120;2023-05-15T00:23:59;11.90;99.90
19044;DHT22;9654;52.302;8.120;2023-05-15T00:26:26;11.90;99.90
19044;DHT22;9654;52.302;8.120;2023-05-15T00:28:54;11.80;99.90
19044;DHT22;9654;52.302;8.120;2023-05-15T00:31:21;11.70;99.90
19044;DHT22;9654;52.302;8.120;2023-05-15T00:33:47;11.70;99.90
19044;DHT22;9654;52.302;8.120;2023-05-15T00:36:14;11.60;99.90
19044;DHT22;9654;52.302;8.120;2023-05-15T00:38:42;11.60;99.90
19044;DHT22;9654;52.302;8.120;2023-05-15T00:41:09;11.60;99.90
19044;DHT22;9654;52.302;8.120;2023-05-15T00:43:38;11.60;99.90
19044;DHT22;9654;52.302;8.120;2023-05-15T00:46:07;11.60;99.90
19044;DHT22;9654;52.302;8.120;2023-05-15T00:48:35;11.60;99.90
19044;DHT22;9654;52.302;8.120;2023-05-15T00:51:02;11.60;99.90
19044;DHT22;9654;52.302;8.120;2023-05-15T00:53:29;11.60;99.90
19044;DHT22;9654;52.302;8.120;2023-05-15T00:55:57;11.60;99.90
19044;DHT22;9654;52.302;8.120;2023-05-15T00:58:25;11.60;99.90
19044;DHT22;9654;52.302;8.120;2023-05-15T01:00:52;11.50;99.90
19044;DHT22;9654;52.302;8.120;2023-05-15T01:03:22;11.40;99.90
19044;DHT22;9654;52.302;8.120;2023-05-15T01:05:49;11.40;99.90
19044;DHT22;9654;52.302;8.120;2023-05-15T01:08:20;11.40;99.90
19044;DHT22;9654;52.302;8.120;2023-05-15T01:10:50;11.30;99.90
19044;DHT22;9654;52.302;8.120;2023-05-15T01:13:19;11.20;99.90
19044;DHT22;9654;52.302;8.120;2023-05-15T01:15:48;11.10;99.90
19044;DHT22;9654;52.302;8.120;2023-05-15T01:18:15;11.10;99.90
19044;DHT22;9654;52.302;8.120;2023-05-15T01:20:57;11.00;99.90
19044;DHT22;9654;52.302;8.120;2023-05-15T01:23:37;10.90;99.90
19044;DHT22;9654;52.302;8.120;2023-05-15T01:26:33;10.80;99.90
19044;DHT22;9654;52.302;8.120;2023-05-15T01:29:06;10.80;99.90
19044;DHT22;9654;52.302;8.120;2023-05-15T01:31:34;10.70;99.90
19044;DHT22;9654;52.302;8.120;2023-05-15T01:34:06;10.70;99.90
19044;DHT22;9654;52.302;8.120;2023-05-15T01:36:37;10.60;99.90
19044;DHT22;9654;52.302;8.120;2023-05-15T01:39:05;10.60;99.90
19044;DHT22;9654;52.302;8.120;2023-05-15T01:41:35;10.60;99.90
19044;DHT22;9654;52.302;8.120;2023-05-15T01:44:07;10.60;99.90
19044;DHT22;9654;52.302;8.120;2023-05-15T01:46:38;10.50;99.90
19044;DHT22;9654;52.302;8.120;2023-05-15T01:49:08;10.40;99.90
19044;DHT22;9654;52.302;8.120;2023-05-15T01:51:37;10.40;99.90
19044;DHT22;9654;52.302;8.120;2023-05-15T01:54:06;10.30;99.90
19044;DHT22;9654;52.302;8.120;2023-05-15T01:56:34;10.20;99.90
19044;DHT22;9654;52.302;8.120;2023-05-15T01:59:02;10.20;99.90
19044;DHT22;9654;52.302;8.120;2023-05-15T02:01:32;10.20;99.90
19044;DHT22;9654;52.302;8.120;2023-05-15T02:03:59;10.20;99.90
19044;DHT22;9654;52.302;8.120;2023-05-15T02:06:27;10.10;99.90
19044;DHT22;9654;52.302;8.120;2023-05-15T02:08:56;10.20;99.90
19044;DHT22;9654;52.302;8.120;2023-05-15T02:11:23;10.10;99.90
19044;DHT22;9654;52.302;8.120;2023-05-15T02:13:51;10.10;99.90
19044;DHT22;9654;52.302;8.120;2023-05-15T02:16:18;10.00;99.90
19044;DHT22;9654;52.302;8.120;2023-05-15T02:18:46;10.00;99.90
19044;DHT22;9654;52.302;8.120;2023-05-15T02:21:14;9.90;99.90
19044;DHT22;9654;52.302;8.120;2023-05-15T02:23:40;9.90;99.90
19044;DHT22;9654;52.302;8.120;2023-05-15T02:26:16;9.90;99.90
19044;DHT22;9654;52.302;8.120;2023-05-15T02:28:53;9.90;99.90
19044;DHT22;9654;52.302;8.120;2023-05-15T02:31:34;9.90;99.90
19044;DHT22;9654;52.302;8.120;2023-05-15T02:34:11;9.90;99.90
19044;DHT22;9654;52.302;8.120;2023-05-15T02:36:42;9.90;99.90
19044;DHT22;9654;52.302;8.120;2023-05-15T02:39:10;9.80;99.90
19044;DHT22;9654;52.302;8.120;2023-05-15T02:41:39;9.70;99.90
19044;DHT22;9654;52.302;8.120;2023-05-15T02:44:06;9.70;99.90
19044;DHT22;9654;52.302;8.120;2023-05-15T02:46:35;9.70;99.90
19044;DHT22;9654;52.302;8.120;2023-05-15T02:49:02;9.80;99.90
19044;DHT22;9654;52.302;8.120;2023-05-15T02:51:31;9.80;99.90
19044;DHT22;9654;52.302;8.120;2023-05-15T02:53:59;9.80;99.90
19044;DHT22;9654;52.302;8.120;2023-05-15T02:56:26;9.80;99.90
19044;DHT22;9654;52.302;8.120;2023-05-15T02:58:53;9.80;99.90
19044;DHT22;9654;52.302;8.120;2023-05-15T03:01:20;9.70;99.90
19044;DHT22;9654;52.302;8.120;2023-05-15T03:03:46;9.70;99.90
19044;DHT22;9654;52.302;8.120;2023-05-15T03:06:13;9.70;99.90
19044;DHT22;9654;52.302;8.120;2023-05-15T03:08:42;9.70;99.90
19044;DHT22;9654;52.302;8.120;2023-05-15T03:11:09;9.60;99.90
19044;DHT22;9654;52.302;8.120;2023-05-15T03:13:35;9.60;99.90
19044;DHT22;9654;52.302;8.120;2023-05-15T03:16:02;9.50;99.90
19044;DHT22;9654;52.302;8.120;2023-05-15T03:18:29;9.40;99.90
19044;DHT22;9654;52.302;8.120;2023-05-15T03:20:56;9.30;99.90
19044;DHT22;9654;52.302;8.120;2023-05-15T03:23:23;9.20;99.90
19044;DHT22;9654;52.302;8.120;2023-05-15T03:25:51;9.20;99.90
19044;DHT22;9654;52.302;8.120;2023-05-15T03:28:17;9.10;99.90
19044;DHT22;9654;52.302;8.120;2023-05-15T03:30:44;9.20;99.90
19044;DHT22;9654;52.302;8.120;2023-05-15T03:33:11;9.20;99.90
19044;DHT22;9654;52.302;8.120;2023-05-15T03:35:38;9.20;99.90
19044;DHT22;9654;52.302;8.120;2023-05-15T03:38:04;9.20;99.90
19044;DHT22;9654;52.302;8.120;2023-05-15T03:40:31;9.20;99.90
19044;DHT22;9654;52.302;8.120;2023-05-15T03:42:59;9.20;99.90
19044;DHT22;9654;52.302;8.120;2023-05-15T03:45:26;9.30;99.90
19044;DHT22;9654;52.302;8.120;2023-05-15T03:47:53;9.30;99.90
19044;DHT22;9654;52.302;8.120;2023-05-15T03:50:20;9.30;99.90
19044;DHT22;9654;52.302;8.120;2023-05-15T03:52:46;9.30;99.90
19044;DHT22;9654;52.302;8.120;2023-05-15T03:55:13;9.40;99.90
19044;DHT22;9654;52.302;8.120;2023-05-15T03:57:40;9.40;99.90
19044;DHT22;9654;52.302;8.120;2023-05-15T04:00:09;9.40;99.90
19044;DHT22;9654;52.302;8.120;2023-05-15T04:02:37;9.50;99.90
19044;DHT22;9654;52.302;8.120;2023-05-15T04:05:05;9.60;99.90
19044;DHT22;9654;52.302;8.120;2023-05-15T04:07:33;9.60;99.90
19044;DHT22;9654;52.302;8.120;2023-05-15T04:10:00;9.70;99.90
19044;DHT22;9654;52.302;8.120;2023-05-15T04:12:27;9.80;99.90
19044;DHT22;9654;52.302;8.120;2023-05-15T04:14:54;9.90;99.90
19044;DHT22;9654;52.302;8.120;2023-05-15T04:17:22;9.90;99.90
19044;DHT22;9654;52.302;8.120;2023-05-15T04:19:49;9.90;99.90
19044;DHT22;9654;52.302;8.120;2023-05-15T04:22:16;9.90;99.90
19044;DHT22;9654;52.302;8.120;2023-05-15T04:24:42;9.90;99.90
19044;DHT22;9654;52.302;8.120;2023-05-15T04:27:09;10.00;99.90
19044;DHT22;9654;52.302;8.120;2023-05-15T04:29:36;10.00;99.90
19044;DHT22;9654;52.302;8.120;2023-05-15T04:32:03;10.10;99.90
19044;DHT22;9654;52.302;8.120;2023-05-15T04:34:31;10.10;99.90
19044;DHT22;9654;52.302;8.120;2023-05-15T04:36:58;10.20;99.90
19044;DHT22;9654;52.302;8.120;2023-05-15T04:39:25;10.20;99.90
19044;DHT22;9654;52.302;8.120;2023-05-15T04:41:52;10.20;99.90
19044;DHT22;9654;52.302;8.120;2023-05-15T04:44:19;10.30;99.90
19044;DHT22;9654;52.302;8.120;2023-05-15T04:46:45;10.40;99.90
19044;DHT22;9654;52.302;8.120;2023-05-15T04:49:12;10.40;99.90
19044;DHT22;9654;52.302;8.120;2023-05-15T04:51:40;10.50;99.90
19044;DHT22;9654;52.302;8.120;2023-05-15T04:54:07;10.60;99.90
19044;DHT22;9654;52.302;8.120;2023-05-15T04:56:34;10.70;99.90
19044;DHT22;9654;52.302;8.120;2023-05-15T04:59:01;10.80;99.90
19044;DHT22;9654;52.302;8.120;2023-05-15T05:01:28;10.90;99.90
19044;DHT22;9654;52.302;8.120;2023-05-15T05:03:55;10.90;99.90
19044;DHT22;9654;52.302;8.120;2023-05-15T05:06:22;11.00;99.90
19044;DHT22;9654;52.302;8.120;2023-05-15T05:08:50;11.10;99.90
19044;DHT22;9654;52.302;8.120;2023-05-15T05:11:17;11.20;99.90
19044;DHT22;9654;52.302;8.120;2023-05-15T05:13:43;11.30;99.90
19044;DHT22;9654;52.302;8.120;2023-05-15T05:16:10;11.40;99.90
19044;DHT22;9654;52.302;8.120;2023-05-15T05:18:37;11.50;99.90
19044;DHT22;9654;52.302;8.120;2023-05-15T05:21:04;11.60;99.90
19044;DHT22;9654;52.302;8.120;2023-05-15T05:23:31;11.70;99.90
19044;DHT22;9654;52.302;8.120;2023-05-15T05:25:59;11.80;99.90
19044;DHT22;9654;52.302;8.120;2023-05-15T05:28:26;11.90;99.90
19044;DHT22;9654;52.302;8.120;2023-05-15T05:30:53;11.90;99.90
19044;DHT22;9654;52.302;8.120;2023-05-15T05:33:20;12.00;99.90
19044;DHT22;9654;52.302;8.120;2023-05-15T05:35:46;12.00;99.90
19044;DHT22;9654;52.302;8.120;2023-05-15T05:38:13;12.10;99.90
19044;DHT22;9654;52.302;8.120;2023-05-15T05:40:40;12.20;99.90
19044;DHT22;9654;52.302;8.120;2023-05-15T05:43:08;12.20;99.90
19044;DHT22;9654;52.302;8.120;2023-05-15T05:45:35;12.30;99.90
19044;DHT22;9654;52.302;8.120;2023-05-15T05:48:02;12.30;99.90
19044;DHT22;9654;52.302;8.120;2023-05-15T05:50:28;12.40;99.90
19044;DHT22;9654;52.302;8.120;2023-05-15T05:52:55;12.50;99.90
19044;DHT22;9654;52.302;8.120;2023-05-15T05:55:22;12.60;99.90
19044;DHT22;9654;52.302;8.120;2023-05-15T05:57:49;12.70;99.90
19044;DHT22;9654;52.302;8.120;2023-05-15T06:00:18;12.80;99.90
19044;DHT22;9654;52.302;8.120;2023-05-15T06:02:45;12.90;99.90
19044;DHT22;9654;52.302;8.120;2023-05-15T06:05:12;13.00;99.90
19044;DHT22;9654;52.302;8.120;2023-05-15T06:07:39;13.10;99.90
19044;DHT22;9654;52.302;8.120;2023-05-15T06:10:06;13.10;99.90
19044;DHT22;9654;52.302;8.120;2023-05-15T06:12:34;13.10;99.90
19044;DHT22;9654;52.302;8.120;2023-05-15T06:15:00;13.20;99.90
19044;DHT22;9654;52.302;8.120;2023-05-15T06:17:28;13.30;99.90
19044;DHT22;9654;52.302;8.120;2023-05-15T06:19:56;13.40;99.90
19044;DHT22;9654;52.302;8.120;2023-05-15T06:22:22;13.50;99.90
19044;DHT22;9654;52.302;8.120;2023-05-15T06:24:49;13.60;99.90
19044;DHT22;9654;52.302;8.120;2023-05-15T06:27:16;13.70;99.90
19044;DHT22;9654;52.302;8.120;2023-05-15T06:29:43;13.90;99.90
19044;DHT22;9654;52.302;8.120;2023-05-15T06:32:09;13.90;99.90
19044;DHT22;9654;52.302;8.120;2023-05-15T06:34:38;14.00;99.90
19044;DHT22;9654;52.302;8.120;2023-05-15T06:37:04;14.00;99.90
19044;DHT22;9654;52.302;8.120;2023-05-15T06:39:32;14.10;99.90
19044;DHT22;9654;52.302;8.120;2023-05-15T06:41:58;14.30;99.90
19044;DHT22;9654;52.302;8.120;2023-05-15T06:44:26;14.40;99.90
19044;DHT22;9654;52.302;8.120;2023-05-15T06:46:53;14.60;99.90
19044;DHT22;9654;52.302;8.120;2023-05-15T06:49:19;14.60;99.90
19044;DHT22;9654;52.302;8.120;2023-05-15T06:51:48;14.80;99.90
19044;DHT22;9654;52.302;8.120;2023-05-15T06:54:15;14.90;99.90
19044;DHT22;9654;52.302;8.120;2023-05-15T06:56:41;15.00;99.90
19044;DHT22;9654;52.302;8.120;2023-05-15T06:59:08;15.10;99.90
19044;DHT22;9654;52.302;8.120;2023-05-15T07:01:35;15.20;99.90
19044;DHT22;9654;52.302;8.120;2023-05-15T07:04:02;15.00;99.90
19044;DHT22;9654;52.302;8.120;2023-05-15T07:06:29;14.90;99.90
19044;DHT22;9654;52.302;8.120;2023-05-15T07:08:58;14.90;99.90
19044;DHT22;9654;52.302;8.120;2023-05-15T07:11:25;15.00;99.90
19044;DHT22;9654;52.302;8.120;2023-05-15T07:13:52;14.90;99.90
19044;DHT22;9654;52.302;8.120;2023-05-15T07:16:19;15.00;99.90
19044;DHT22;9654;52.302;8.120;2023-05-15T07:18:46;15.10;99.90
19044;DHT22;9654;52.302;8.120;2023-05-15T07:21:13;15.30;99.90
19044;DHT22;9654;52.302;8.120;2023-05-15T07:23:39;15.50;99.90
19044;DHT22;9654;52.302;8.120;2023-05-15T07:26:07;15.70;99.90
19044;DHT22;9654;52.302;8.120;2023-05-15T07:28:34;15.90;99.90
19044;DHT22;9654;52.302;8.120;2023-05-15T07:31:01;15.90;99.90
19044;DHT22;9654;52.302;8.120;2023-05-15T07:33:29;15.80;99.90
19044;DHT22;9654;52.302;8.120;2023-05-15T07:35:55;15.80;99.90
19044;DHT22;9654;52.302;8.120;2023-05-15T07:38:22;15.90;99.90
19044;DHT22;9654;52.302;8.120;2023-05-15T07:40:49;16.00;99.90
19044;DHT22;9654;52.302;8.120;2023-05-15T07:43:17;16.00;99.90
19044;DHT22;9654;52.302;8.120;2023-05-15T07:45:44;16.10;99.90
19044;DHT22;9654;52.302;8.120;2023-05-15T07:48:16;16.10;99.90
19044;DHT22;9654;52.302;8.120;2023-05-15T07:50:44;15.90;99.90
19044;DHT22;9654;52.302;8.120;2023-05-15T07:53:11;15.80;99.90
19044;DHT22;9654;52.302;8.120;2023-05-15T07:55:39;15.80;99.90
19044;DHT22;9654;52.302;8.120;2023-05-15T07:58:06;15.90;99.90
19044;DHT22;9654;52.302;8.120;2023-05-15T08:00:35;15.90;99.90
19044;DHT22;9654;52.302;8.120;2023-05-15T08:03:02;15.80;99.90
19044;DHT22;9654;52.302;8.120;2023-05-15T08:05:29;15.80;99.90
19044;DHT22;9654;52.302;8.120;2023-05-15T08:07:56;15.80;99.90
19044;DHT22;9654;52.302;8.120;2023-05-15T08:10:23;15.90;99.90
19044;DHT22;9654;52.302;8.120;2023-05-15T08:12:50;15.90;99.90
19044;DHT22;9654;52.302;8.120;2023-05-15T08:15:16;16.20;99.90
19044;DHT22;9654;52.302;8.120;2023-05-15T08:17:45;16.40;99.90
19044;DHT22;9654;52.302;8.120;2023-05-15T08:20:12;16.60;99.90
19044;DHT22;9654;52.302;8.120;2023-05-15T08:22:39;16.70;99.90
19044;DHT22;9654;52.302;8.120;2023-05-15T08:25:06;16.50;99.90
19044;DHT22;9654;52.302;8.120;2023-05-15T08:27:33;16.40;99.90
19044;DHT22;9654;52.302;8.120;2023-05-15T08:30:00;16.30;99.90
19044;DHT22;9654;52.302;8.120;2023-05-15T08:32:28;16.30;99.90
19044;DHT22;9654;52.302;8.120;2023-05-15T08:34:56;16.50;99.90
19044;DHT22;9654;52.302;8.120;2023-05-15T08:37:23;16.80;99.90
19044;DHT22;9654;52.302;8.120;2023-05-15T08:39:50;17.00;99.90
19044;DHT22;9654;52.302;8.120;2023-05-15T08:42:20;17.20;99.90
19044;DHT22;9654;52.302;8.120;2023-05-15T08:44:50;17.20;99.90
19044;DHT22;9654;52.302;8.120;2023-05-15T08:47:18;17.20;99.90
19044;DHT22;9654;52.302;8.120;2023-05-15T08:49:51;17.30;99.90
19044;DHT22;9654;52.302;8.120;2023-05-15T08:52:20;17.40;99.90
19044;DHT22;9654;52.302;8.120;2023-05-15T08:54:47;17.40;99.90
19044;DHT22;9654;52.302;8.120;2023-05-15T08:57:16;17.10;99.90
19044;DHT22;9654;52.302;8.120;2023-05-15T08:59:43;16.90;99.90
19044;DHT22;9654;52.302;8.120;2023-05-15T09:02:10;16.80;99.90
19044;DHT22;9654;52.302;8.120;2023-05-15T09:04:36;16.70;99.90
19044;DHT22;9654;52.302;8.120;2023-05-15T09:07:04;16.60;99.90
19044;DHT22;9654;52.302;8.120;2023-05-15T09:09:32;16.70;99.90
19044;DHT22;9654;52.302;8.120;2023-05-15T09:11:59;16.80;99.90
19044;DHT22;9654;52.302;8.120;2023-05-15T09:14:26;17.00;99.90
19044;DHT22;9654;52.302;8.120;2023-05-15T09:16:53;17.10;99.90
19044;DHT22;9654;52.302;8.120;2023-05-15T09:19:22;17.00;99.90
19044;DHT22;9654;52.302;8.120;2023-05-15T09:21:48;16.80;99.90
19044;DHT22;9654;52.302;8.120;2023-05-15T09:24:17;16.50;99.90
19044;DHT22;9654;52.302;8.120;2023-05-15T09:26:46;16.30;99.90
19044;DHT22;9654;52.302;8.120;2023-05-15T09:29:15;16.50;99.90
19044;DHT22;9654;52.302;8.120;2023-05-15T09:31:45;16.60;99.90
19044;DHT22;9654;52.302;8.120;2023-05-15T09:34:12;16.60;99.90
19044;DHT22;9654;52.302;8.120;2023-05-15T09:36:41;16.50;99.90
19044;DHT22;9654;52.302;8.120;2023-05-15T09:39:09;16.60;99.90
19044;DHT22;9654;52.302;8.120;2023-05-15T09:41:40;16.60;99.90
19044;DHT22;9654;52.302;8.120;2023-05-15T09:44:17;16.80;99.90
19044;DHT22;9654;52.302;8.120;2023-05-15T09:46:44;17.00;99.90
19044;DHT22;9654;52.302;8.120;2023-05-15T09:49:11;17.30;99.90
19044;DHT22;9654;52.302;8.120;2023-05-15T09:51:38;17.50;99.90
19044;DHT22;9654;52.302;8.120;2023-05-15T09:54:05;17.60;99.90
19044;DHT22;9654;52.302;8.120;2023-05-15T09:56:40;17.90;99.90
19044;DHT22;9654;52.302;8.120;2023-05-15T09:59:13;17.90;99.90
19044;DHT22;9654;52.302;8.120;2023-05-15T10:01:42;17.80;99.90
19044;DHT22;9654;52.302;8.120;2023-05-15T10:04:10;17.90;99.90
19044;DHT22;9654;52.302;8.120;2023-05-15T10:06:38;18.00;99.90
19044;DHT22;9654;52.302;8.120;2023-05-15T10:09:05;18.00;99.90
19044;DHT22;9654;52.302;8.120;2023-05-15T10:11:34;18.20;99.90
19044;DHT22;9654;52.302;8.120;2023-05-15T10:14:01;18.30;99.90
19044;DHT22;9654;52.302;8.120;2023-05-15T10:16:32;18.30;99.90
19044;DHT22;9654;52.302;8.120;2023-05-15T10:19:00;18.30;99.90
19044;DHT22;9654;52.302;8.120;2023-05-15T10:21:30;18.30;99.90
19044;DHT22;9654;52.302;8.120;2023-05-15T10:23:58;18.30;99.90
19044;DHT22;9654;52.302;8.120;2023-05-15T10:26:33;18.40;99.90
19044;DHT22;9654;52.302;8.120;2023-05-15T10:29:04;18.60;99.90
19044;DHT22;9654;52.302;8.120;2023-05-15T10:31:34;18.70;99.90
19044;DHT22;9654;52.302;8.120;2023-05-15T10:34:02;18.70;99.90
19044;DHT22;9654;52.302;8.120;2023-05-15T10:36:29;18.70;99.90
19044;DHT22;9654;52.302;8.120;2023-05-15T10:38:58;18.50;99.90
19044;DHT22;9654;52.302;8.120;2023-05-15T10:41:26;18.60;99.90
19044;DHT22;9654;52.302;8.120;2023-05-15T10:43:54;18.70;99.90
19044;DHT22;9654;52.302;8.120;2023-05-15T10:46:23;18.60;99.90
19044;DHT22;9654;52.302;8.120;2023-05-15T10:48:52;18.40;99.90
19044;DHT22;9654;52.302;8.120;2023-05-15T10:51:24;18.10;99.90
19044;DHT22;9654;52.302;8.120;2023-05-15T10:53:51;17.90;99.90
19044;DHT22;9654;52.302;8.120;2023-05-15T10:56:18;17.90;99.90
19044;DHT22;9654;52.302;8.120;2023-05-15T10:58:46;18.20;99.90
19044;DHT22;9654;52.302;8.120;2023-05-15T11:01:27;18.70;99.90
19044;DHT22;9654;52.302;8.120;2023-05-15T11:04:11;19.00;99.90
19044;DHT22;9654;52.302;8.120;2023-05-15T11:06:39;19.30;99.90
19044;DHT22;9654;52.302;8.120;2023-05-15T11:09:35;19.40;99.90
19044;DHT22;9654;52.302;8.120;2023-05-15T11:12:03;19.20;99.90
19044;DHT22;9654;52.302;8.120;2023-05-15T11:14:31;19.10;99.90
19044;DHT22;9654;52.302;8.120;2023-05-15T11:16:59;19.40;99.90
19044;DHT22;9654;52.302;8.120;2023-05-15T11:19:38;19.60;99.90
19044;DHT22;9654;52.302;8.120;2023-05-15T11:22:18;19.70;99.90
19044;DHT22;9654;52.302;8.120;2023-05-15T11:24:50;20.00;99.90
19044;DHT22;9654;52.302;8.120;2023-05-15T11:27:19;20.30;99.90
19044;DHT22;9654;52.302;8.120;2023-05-15T11:30:06;20.30;99.90
19044;DHT22;9654;52.302;8.120;2023-05-15T11:32:50;20.50;99.90
19044;DHT22;9654;52.302;8.120;2023-05-15T11:35:21;20.30;99.90
19044;DHT22;9654;52.302;8.120;2023-05-15T11:37:49;20.20;99.90
19044;DHT22;9654;52.302;8.120;2023-05-15T11:40:21;20.40;99.90
19044;DHT22;9654;52.302;8.120;2023-05-15T11:43:02;20.20;99.90
19044;DHT22;9654;52.302;8.120;2023-05-15T11:45:31;20.30;99.90
19044;DHT22;9654;52.302;8.120;2023-05-15T11:48:00;20.20;99.90
19044;DHT22;9654;52.302;8.120;2023-05-15T11:50:30;20.00;99.90
19044;DHT22;9654;52.302;8.120;2023-05-15T11:53:01;20.00;99.90
19044;DHT22;9654;52.302;8.120;2023-05-15T11:55:29;20.10;99.90
19044;DHT22;9654;52.302;8.120;2023-05-15T11:57:56;20.00;99.90
19044;DHT22;9654;52.302;8.120;2023-05-15T12:00:23;20.10;99.90
19044;DHT22;9654;52.302;8.120;2023-05-15T12:02:50;20.10;99.90
19044;DHT22;9654;52.302;8.120;2023-05-15T12:05:16;20.50;99.90
19044;DHT22;9654;52.302;8.120;2023-05-15T12:07:45;20.50;99.90
19044;DHT22;9654;52.302;8.120;2023-05-15T12:10:12;20.70;99.90
19044;DHT22;9654;52.302;8.120;2023-05-15T12:12:39;20.40;99.90
19044;DHT22;9654;52.302;8.120;2023-05-15T12:15:09;20.40;99.90
19044;DHT22;9654;52.302;8.120;2023-05-15T12:17:36;20.30;99.90
19044;DHT22;9654;52.302;8.120;2023-05-15T12:20:06;20.30;99.90
19044;DHT22;9654;52.302;8.120;2023-05-15T12:22:36;20.40;99.90
19044;DHT22;9654;52.302;8.120;2023-05-15T12:25:05;20.30;99.90
19044;DHT22;9654;52.302;8.120;2023-05-15T12:27:33;20.10;99.90
19044;DHT22;9654;52.302;8.120;2023-05-15T12:30:00;20.00;99.90
19044;DHT22;9654;52.302;8.120;2023-05-15T12:32:30;20.00;99.90
19044;DHT22;9654;52.302;8.120;2023-05-15T12:34:57;20.20;99.90
19044;DHT22;9654;52.302;8.120;2023-05-15T12:37:23;20.20;99.90
19044;DHT22;9654;52.302;8.120;2023-05-15T12:39:52;20.30;99.90
19044;DHT22;9654;52.302;8.120;2023-05-15T12:42:20;20.50;99.90
19044;DHT22;9654;52.302;8.120;2023-05-15T12:44:49;20.60;99.90
19044;DHT22;9654;52.302;8.120;2023-05-15T12:47:21;20.80;99.90
19044;DHT22;9654;52.302;8.120;2023-05-15T12:49:48;20.90;99.90
19044;DHT22;9654;52.302;8.120;2023-05-15T12:52:15;20.80;99.90
19044;DHT22;9654;52.302;8.120;2023-05-15T12:54:42;20.90;99.90
19044;DHT22;9654;52.302;8.120;2023-05-15T12:57:10;21.10;99.90
19044;DHT22;9654;52.302;8.120;2023-05-15T12:59:39;21.30;99.90
19044;DHT22;9654;52.302;8.120;2023-05-15T13:02:08;21.30;99.90
19044;DHT22;9654;52.302;8.120;2023-05-15T13:04:36;21.20;99.90
19044;DHT22;9654;52.302;8.120;2023-05-15T13:07:03;21.20;99.90
19044;DHT22;9654;52.302;8.120;2023-05-15T13:09:30;21.10;99.90
19044;DHT22;9654;52.302;8.120;2023-05-15T13:11:57;20.80;99.90
19044;DHT22;9654;52.302;8.120;2023-05-15T13:14:26;20.90;99.90
19044;DHT22;9654;52.302;8.120;2023-05-15T13:17:00;20.80;99.90
19044;DHT22;9654;52.302;8.120;2023-05-15T13:19:27;20.90;99.90
19044;DHT22;9654;52.302;8.120;2023-05-15T13:21:54;21.10;99.90
19044;DHT22;9654;52.302;8.120;2023-05-15T13:24:21;21.10;99.90
19044;DHT22;9654;52.302;8.120;2023-05-15T13:26:48;21.10;99.90
19044;DHT22;9654;52.302;8.120;2023-05-15T13:29:14;21.10;99.90
19044;DHT22;9654;52.302;8.120;2023-05-15T13:31:41;21.40;99.90
19044;DHT22;9654;52.302;8.120;2023-05-15T13:34:09;21.60;99.90
19044;DHT22;9654;52.302;8.120;2023-05-15T13:36:36;21.60;99.90
19044;DHT22;9654;52.302;8.120;2023-05-15T13:39:03;21.60;99.90
19044;DHT22;9654;52.302;8.120;2023-05-15T13:41:30;21.60;99.90
19044;DHT22;9654;52.302;8.120;2023-05-15T13:43:58;21.60;99.90
19044;DHT22;9654;52.302;8.120;2023-05-15T13:46:25;21.70;99.90
19044;DHT22;9654;52.302;8.120;2023-05-15T13:48:52;21.40;99.90
19044;DHT22;9654;52.302;8.120;2023-05-15T13:51:20;21.60;99.90
19044;DHT22;9654;52.302;8.120;2023-05-15T13:53:47;21.90;99.90
19044;DHT22;9654;52.302;8.120;2023-05-15T13:56:14;22.30;99.90
19044;DHT22;9654;52.302;8.120;2023-05-15T13:58:40;22.90;99.90
19044;DHT22;9654;52.302;8.120;2023-05-15T14:01:07;23.10;99.90
19044;DHT22;9654;52.302;8.120;2023-05-15T14:03:34;22.90;99.90
19044;DHT22;9654;52.302;8.120;2023-05-15T14:06:00;23.00;99.90
19044;DHT22;9654;52.302;8.120;2023-05-15T14:08:28;22.70;99.90
19044;DHT22;9654;52.302;8.120;2023-05-15T14:10:55;22.70;99.90
19044;DHT22;9654;52.302;8.120;2023-05-15T14:13:22;22.60;99.90
19044;DHT22;9654;52.302;8.120;2023-05-15T14:15:49;22.70;99.90
19044;DHT22;9654;52.302;8.120;2023-05-15T14:18:15;22.40;99.90
19044;DHT22;9654;52.302;8.120;2023-05-15T14:20:42;22.10;99.90
19044;DHT22;9654;52.302;8.120;2023-05-15T14:23:09;21.90;99.90
19044;DHT22;9654;52.302;8.120;2023-05-15T14:25:37;21.80;99.90
19044;DHT22;9654;52.302;8.120;2023-05-15T14:28:04;21.60;99.90
19044;DHT22;9654;52.302;8.120;2023-05-15T14:30:31;21.60;99.90
19044;DHT22;9654;52.302;8.120;2023-05-15T14:32:57;21.70;99.90
19044;DHT22;9654;52.302;8.120;2023-05-15T14:35:24;21.70;99.90
19044;DHT22;9654;52.302;8.120;2023-05-15T14:37:51;21.90;99.90
19044;DHT22;9654;52.302;8.120;2023-05-15T14:40:18;22.30;99.90
19044;DHT22;9654;52.302;8.120;2023-05-15T14:42:46;22.40;99.90
19044;DHT22;9654;52.302;8.120;2023-05-15T14:45:12;22.60;99.90
19044;DHT22;9654;52.302;8.120;2023-05-15T14:47:39;22.50;99.90
19044;DHT22;9654;52.302;8.120;2023-05-15T14:50:07;22.80;99.90
19044;DHT22;9654;52.302;8.120;2023-05-15T14:52:34;23.00;99.90
19044;DHT22;9654;52.302;8.120;2023-05-15T14:55:01;23.00;99.90
19044;DHT22;9654;52.302;8.120;2023-05-15T14:57:30;23.00;99.90
19044;DHT22;9654;52.302;8.120;2023-05-15T14:59:58;23.00;99.90
19044;DHT22;9654;52.302;8.120;2023-05-15T15:02:25;22.60;99.90
19044;DHT22;9654;52.302;8.120;2023-05-15T15:04:52;22.30;99.90
19044;DHT22;9654;52.302;8.120;2023-05-15T15:07:18;21.80;99.90
19044;DHT22;9654;52.302;8.120;2023-05-15T15:09:45;21.70;99.90
19044;DHT22;9654;52.302;8.120;2023-05-15T15:14:40;21.90;99.90
19044;DHT22;9654;52.302;8.120;2023-05-15T15:17:08;22.30;99.90
19044;DHT22;9654;52.302;8.120;2023-05-15T15:19:35;22.50;99.90
19044;DHT22;9654;52.302;8.120;2023-05-15T15:22:01;22.40;99.90
19044;DHT22;9654;52.302;8.120;2023-05-15T15:24:28;22.30;99.90
19044;DHT22;9654;52.302;8.120;2023-05-15T15:26:55;22.00;99.90
19044;DHT22;9654;52.302;8.120;2023-05-15T15:29:22;21.80;99.90
19044;DHT22;9654;52.302;8.120;2023-05-15T15:31:48;21.70;99.90
19044;DHT22;9654;52.302;8.120;2023-05-15T15:34:16;21.50;99.90
19044;DHT22;9654;52.302;8.120;2023-05-15T15:36:43;21.40;99.90
19044;DHT22;9654;52.302;8.120;2023-05-15T15:39:10;21.50;99.90
19044;DHT22;9654;52.302;8.120;2023-05-15T15:41:37;21.70;99.90
19044;DHT22;9654;52.302;8.120;2023-05-15T15:44:04;22.00;99.90
19044;DHT22;9654;52.302;8.120;2023-05-15T15:46:31;22.20;99.90
19044;DHT22;9654;52.302;8.120;2023-05-15T15:48:58;22.40;99.90
19044;DHT22;9654;52.302;8.120;2023-05-15T15:51:27;22.70;99.90
19044;DHT22;9654;52.302;8.120;2023-05-15T15:53:53;23.00;99.90
19044;DHT22;9654;52.302;8.120;2023-05-15T15:56:20;22.90;99.90